Time;durP1;ratioP1;P1;durP2;ratioP2;P2;SDS_P1;SDS_P2;PMS_P1;PMS_P2;Temp;Humidity;BMP_temperature;BMP_pressure;BME280_temperature;BME280_humidity;BME280_pressure;Samples;Min_cycle;Max_cycle;Signal;HPM_P1;HPM_P2
2021/05/07 03:55:20;;;;;;;2.53;2.25;;;3.40;90.30;;;;;;5010716;28;20046;-72
2021/05/07 03:57:47;;;;;;;2.33;2.13;;;3.40;90.20;;;;;;4998721;28;20437;-72
2021/05/07 04:00:13;;;;;;;3.40;3.05;;;3.50;89.60;;;;;;5013407;28;20049;-72
2021/05/07 04:02:39;;;;;;;2.60;2.40;;;3.50;89.10;;;;;;5014967;28;20030;-73
2021/05/07 04:05:06;;;;;;;2.97;2.55;;;3.60;89.00;;;;;;5014951;28;20110;-74
2021/05/07 04:07:31;;;;;;;2.60;2.40;;;3.80;88.60;;;;;;5015063;28;20030;-74
2021/05/07 04:10:04;;;;;;;2.55;2.33;;;4.00;86.50;;;;;;5014559;28;20037;-73
2021/05/07 04:15:15;;;;;;;2.40;2.20;;;4.50;82.80;;;;;;5015069;28;20096;-73
2021/05/07 04:17:41;;;;;;;2.38;2.17;;;4.80;81.10;;;;;;5014765;28;20033;-77
2021/05/07 04:20:07;;;;;;;2.85;2.40;;;5.00;79.60;;;;;;5014381;28;20022;-75
2021/05/07 04:22:33;;;;;;;2.83;2.50;;;5.20;78.10;;;;;;5014683;28;20108;-73
2021/05/07 04:24:59;;;;;;;2.28;2.08;;;5.40;76.50;;;;;;5014560;28;20459;-73
2021/05/07 04:27:25;;;;;;;4.13;2.30;;;5.60;75.50;;;;;;5014538;28;20105;-73
2021/05/07 04:29:52;;;;;;;2.63;2.42;;;5.80;74.10;;;;;;5014266;28;20120;-71
2021/05/07 04:32:17;;;;;;;2.65;2.33;;;6.10;73.30;;;;;;5014566;28;20049;-74
2021/05/07 04:34:43;;;;;;;2.50;2.30;;;6.20;72.40;;;;;;5014500;28;20017;-71
2021/05/07 04:37:09;;;;;;;7.20;2.20;;;6.40;71.30;;;;;;4999184;28;20034;-72
2021/05/07 04:39:35;;;;;;;2.35;2.15;;;6.60;74.20;;;;;;4994701;28;20026;-73
2021/05/07 04:42:00;;;;;;;2.70;2.25;;;7.30;85.20;;;;;;4976809;28;20046;-71
2021/05/07 04:44:26;;;;;;;2.67;2.03;;;7.50;68.50;;;;;;4994600;28;20023;-82
2021/05/07 04:46:53;;;;;;;3.25;2.50;;;7.40;67.40;;;;;;4994632;28;20021;-73
2021/05/07 04:49:18;;;;;;;2.55;2.33;;;7.50;68.10;;;;;;4994522;28;20069;-75
2021/05/07 04:51:44;;;;;;;3.20;2.70;;;7.50;67.80;;;;;;4994569;28;20034;-74
2021/05/07 04:54:10;;;;;;;2.95;2.10;;;7.50;66.50;;;;;;4994265;28;20018;-77
2021/05/07 04:56:36;;;;;;;2.30;2.13;;;7.70;65.60;;;;;;4994153;28;20052;-78
2021/05/07 04:59:02;;;;;;;2.60;2.40;;;7.90;65.10;;;;;;4994120;28;20018;-76
2021/05/07 05:01:28;;;;;;;2.58;2.15;;;8.10;65.00;;;;;;4994165;28;20018;-77
2021/05/07 05:03:53;;;;;;;3.08;2.20;;;8.30;64.30;;;;;;4994407;28;20026;-77
2021/05/07 05:06:19;;;;;;;2.38;2.17;;;8.50;63.10;;;;;;4994025;28;20526;-77
2021/05/07 05:08:45;;;;;;;2.58;2.08;;;8.50;62.50;;;;;;4994244;28;20022;-77
2021/05/07 05:11:11;;;;;;;2.50;2.30;;;8.40;62.30;;;;;;4993159;28;20050;-77
2021/05/07 05:13:36;;;;;;;2.55;2.35;;;8.50;61.50;;;;;;4994273;28;20030;-77
2021/05/07 05:16:02;;;;;;;3.42;2.30;;;8.40;61.50;;;;;;4993960;28;20105;-76
2021/05/07 05:18:32;;;;;;;2.50;2.30;;;8.60;61.50;;;;;;4993965;28;20034;-77
2021/05/07 05:21:06;;;;;;;4.00;2.50;;;8.70;60.90;;;;;;4994125;28;20028;-77
2021/05/07 05:23:32;;;;;;;2.97;2.45;;;8.80;60.60;;;;;;4994004;28;20022;-81
2021/05/07 05:25:59;;;;;;;3.67;2.75;;;8.90;60.20;;;;;;4993793;28;20018;-82
2021/05/07 05:28:25;;;;;;;2.58;2.38;;;9.00;60.00;;;;;;4993958;28;20018;-82
2021/05/07 05:30:52;;;;;;;2.63;2.42;;;9.00;59.60;;;;;;4993578;28;20035;-81
2021/05/07 05:33:17;;;;;;;2.50;2.30;;;8.90;59.90;;;;;;4993635;28;20026;-81
2021/05/07 05:35:44;;;;;;;2.50;2.30;;;9.10;60.50;;;;;;4993618;28;20029;-81
2021/05/07 05:38:10;;;;;;;4.40;2.10;;;9.00;61.00;;;;;;4993594;28;20525;-80
2021/05/07 05:40:36;;;;;;;2.72;2.53;;;9.10;60.30;;;;;;4993534;28;20030;-81
2021/05/07 05:43:02;;;;;;;2.30;2.05;;;9.10;60.10;;;;;;5000924;28;20037;-82
2021/05/07 05:45:28;;;;;;;2.45;2.25;;;9.00;59.90;;;;;;5013595;28;20018;-82
2021/05/07 05:48:12;;;;;;;2.63;2.10;;;9.10;59.90;;;;;;5013060;28;20030;-81
2021/05/07 05:50:42;;;;;;;2.20;2.00;;;9.20;59.60;;;;;;4995267;28;20029;-73
2021/05/07 05:53:08;;;;;;;2.10;1.92;;;9.20;59.00;;;;;;5013132;28;20460;-73
2021/05/07 05:55:36;;;;;;;2.45;2.03;;;9.00;58.80;;;;;;5012742;28;20037;-72
2021/05/07 05:58:03;;;;;;;1.77;1.67;;;9.00;58.70;;;;;;5012690;28;20022;-71
2021/05/07 06:00:29;;;;;;;4.65;2.05;;;9.10;58.50;;;;;;5012951;28;20489;-72
2021/05/07 06:02:54;;;;;;;1.98;1.77;;;9.10;58.00;;;;;;5012904;28;20022;-71
2021/05/07 06:05:20;;;;;;;1.85;1.75;;;8.90;58.10;;;;;;5012811;28;20026;-74
2021/05/07 06:07:47;;;;;;;4.65;1.70;;;8.70;59.10;;;;;;5012920;28;20033;-74
2021/05/07 06:10:14;;;;;;;2.42;2.10;;;8.60;58.90;;;;;;5012685;28;20033;-73
2021/05/07 06:12:41;;;;;;;2.00;1.83;;;8.70;59.20;;;;;;4999495;28;20506;-70
2021/05/07 06:15:08;;;;;;;2.65;2.00;;;8.70;59.10;;;;;;5011919;28;20097;-71
2021/05/07 06:17:34;;;;;;;2.05;1.85;;;8.50;58.90;;;;;;4994952;28;20022;-75
2021/05/07 06:20:03;;;;;;;2.03;1.90;;;8.80;69.50;;;;;;5012404;28;20434;-71
2021/05/07 06:22:30;;;;;;;2.53;2.33;;;9.10;59.50;;;;;;5012547;28;20565;-71
2021/05/07 06:24:56;;;;;;;2.13;1.95;;;8.60;58.60;;;;;;5012094;28;20072;-71
2021/05/07 06:27:22;;;;;;;3.72;2.30;;;8.30;59.00;;;;;;5012160;28;20367;-71
2021/05/07 06:29:47;;;;;;;3.05;2.42;;;8.10;59.50;;;;;;5012060;28;20032;-71
2021/05/07 06:32:13;;;;;;;2.25;2.03;;;7.90;60.20;;;;;;5012329;28;20037;-71
2021/05/07 06:34:39;;;;;;;13.93;3.20;;;7.80;61.00;;;;;;5012288;28;20022;-71
2021/05/07 06:37:05;;;;;;;2.53;2.33;;;7.80;61.40;;;;;;4997700;28;20435;-70
2021/05/07 06:39:30;;;;;;;4.55;1.55;;;7.90;61.20;;;;;;4992640;28;20033;-72
2021/05/07 06:42:00;;;;;;;3.38;2.85;;;8.00;63.70;;;;;;4992606;28;20068;-72
2021/05/07 06:44:26;;;;;;;2.95;2.65;;;9.00;62.20;;;;;;5011107;28;20064;-73
2021/05/07 06:46:53;;;;;;;2.47;2.28;;;8.90;59.70;;;;;;5012334;28;20079;-73
2021/05/07 06:49:19;;;;;;;2.63;2.30;;;8.60;59.60;;;;;;5011783;28;20466;-73
2021/05/07 06:51:46;;;;;;;2.72;2.35;;;8.50;60.20;;;;;;4991955;28;20045;-73
2021/05/07 06:54:13;;;;;;;2.38;2.10;;;8.50;60.90;;;;;;4991940;28;20030;-73
2021/05/07 06:56:38;;;;;;;3.60;2.65;;;8.40;60.10;;;;;;4992079;28;20058;-72
2021/05/07 06:59:08;;;;;;;2.30;2.10;;;8.40;60.20;;;;;;4992052;28;20026;-72
2021/05/07 07:01:37;;;;;;;2.25;2.05;;;8.30;60.30;;;;;;4981287;28;20386;-72
2021/05/07 07:04:07;;;;;;;3.20;2.33;;;8.20;60.30;;;;;;4991844;28;20117;-72
2021/05/07 07:06:33;;;;;;;2.90;2.40;;;8.30;60.40;;;;;;4988760;28;20033;-72
2021/05/07 07:09:00;;;;;;;2.67;2.47;;;8.30;60.30;;;;;;4991653;28;20052;-71
2021/05/07 07:11:25;;;;;;;17.17;3.00;;;8.30;59.30;;;;;;4985868;28;20129;-72
2021/05/07 07:13:51;;;;;;;4.88;2.35;;;8.50;65.00;;;;;;4991982;28;20524;-70
2021/05/07 07:16:17;;;;;;;3.03;2.72;;;8.90;60.20;;;;;;4992021;28;20030;-71
2021/05/07 07:18:43;;;;;;;6.38;2.80;;;8.90;58.10;;;;;;4992060;28;20029;-72
2021/05/07 07:21:09;;;;;;;6.18;2.33;;;8.60;58.20;;;;;;4973549;28;20019;-72
2021/05/07 07:23:38;;;;;;;2.55;2.35;;;8.90;67.50;;;;;;4991511;28;20375;-71
2021/05/07 07:26:05;;;;;;;4.20;2.70;;;9.40;68.80;;;;;;4992107;28;20037;-69
2021/05/07 07:28:32;;;;;;;5.47;2.78;;;9.70;63.50;;;;;;4988337;28;20015;-72
2021/05/07 07:30:58;;;;;;;3.67;2.75;;;10.00;64.70;;;;;;4971013;28;20038;-71
2021/05/07 07:33:24;;;;;;;3.53;3.17;;;10.20;62.50;;;;;;4991575;28;20121;-71
2021/05/07 07:35:50;;;;;;;4.75;2.78;;;9.80;57.20;;;;;;4987023;28;20026;-70
2021/05/07 07:38:16;;;;;;;3.28;2.97;;;9.60;58.50;;;;;;4973767;28;20031;-69
2021/05/07 07:40:42;;;;;;;3.40;3.00;;;9.50;57.80;;;;;;4993755;28;20523;-69
2021/05/07 07:43:08;;;;;;;3.28;2.50;;;9.60;59.40;;;;;;4993447;28;20030;-70
2021/05/07 07:45:33;;;;;;;3.15;2.85;;;9.70;58.40;;;;;;4972373;28;20117;-70
2021/05/07 07:47:59;;;;;;;3.20;2.85;;;9.80;57.90;;;;;;4991050;28;20018;-70
2021/05/07 07:50:25;;;;;;;3.95;2.78;;;9.80;58.30;;;;;;5003074;28;20030;-70
2021/05/07 07:52:51;;;;;;;6.25;3.15;;;9.80;57.20;;;;;;4979003;28;20058;-70
2021/05/07 07:55:17;;;;;;;2.88;2.58;;;9.60;57.40;;;;;;5004264;28;20117;-70
2021/05/07 07:57:43;;;;;;;3.10;2.80;;;9.60;56.90;;;;;;4996561;28;20204;-70
2021/05/07 08:00:10;;;;;;;3.30;3.00;;;9.60;56.90;;;;;;4993386;28;20035;-71
2021/05/07 08:02:36;;;;;;;3.65;3.08;;;9.50;56.80;;;;;;4981343;28;20398;-70
2021/05/07 08:05:01;;;;;;;3.35;3.05;;;9.20;55.80;;;;;;4996039;28;20033;-70
2021/05/07 08:07:27;;;;;;;3.47;3.17;;;8.80;56.20;;;;;;4995302;28;20022;-70
2021/05/07 08:09:53;;;;;;;3.35;3.05;;;8.70;56.90;;;;;;4994319;28;20360;-70
2021/05/07 08:12:19;;;;;;;3.42;3.13;;;8.60;56.40;;;;;;4995112;28;20168;-70
2021/05/07 08:14:44;;;;;;;4.72;3.20;;;8.60;57.20;;;;;;4993356;28;20030;-68
2021/05/07 08:17:10;;;;;;;3.20;2.72;;;8.70;56.30;;;;;;4977491;28;20072;-70
2021/05/07 08:19:36;;;;;;;3.58;3.28;;;8.70;56.80;;;;;;4995168;28;20478;-70
2021/05/07 08:22:03;;;;;;;3.00;2.70;;;8.50;56.00;;;;;;4995236;28;20101;-71
2021/05/07 08:24:30;;;;;;;3.65;3.03;;;8.20;56.90;;;;;;4994830;28;20370;-71
2021/05/07 08:26:58;;;;;;;11.20;3.45;;;8.20;57.40;;;;;;4994971;28;20023;-70
2021/05/07 08:29:24;;;;;;;10.77;3.53;;;8.20;57.50;;;;;;4994765;28;20022;-70
2021/05/07 08:31:50;;;;;;;3.22;2.92;;;8.10;57.20;;;;;;4994990;28;20034;-70
2021/05/07 08:34:16;;;;;;;3.13;2.80;;;8.00;57.30;;;;;;4994895;28;20076;-70
2021/05/07 08:36:42;;;;;;;3.63;3.33;;;8.00;57.90;;;;;;4994920;28;20109;-71
2021/05/07 08:39:08;;;;;;;4.10;3.70;;;8.00;57.60;;;;;;4976976;28;20481;-71
2021/05/07 08:41:34;;;;;;;4.57;3.40;;;7.90;57.40;;;;;;4985516;28;20104;-70
2021/05/07 08:44:00;;;;;;;4.07;3.67;;;7.80;57.50;;;;;;4994771;28;20034;-70
2021/05/07 08:46:26;;;;;;;4.35;3.72;;;7.70;58.00;;;;;;4993082;28;20026;-67
2021/05/07 08:48:53;;;;;;;4.45;4.05;;;7.60;58.40;;;;;;4977517;28;20657;-68
2021/05/07 08:51:19;;;;;;;4.85;3.53;;;7.50;59.00;;;;;;4994272;28;20046;-67
2021/05/07 08:53:45;;;;;;;4.90;4.40;;;7.60;59.40;;;;;;4994706;28;20014;-70
2021/05/07 08:56:11;;;;;;;4.30;3.90;;;7.50;58.20;;;;;;4994199;28;20516;-69
2021/05/07 08:58:38;;;;;;;5.28;4.05;;;7.40;58.50;;;;;;4994371;28;20018;-69
2021/05/07 09:01:04;;;;;;;4.40;4.00;;;7.60;58.20;;;;;;4976934;28;20061;-71
2021/05/07 09:03:46;;;;;;;4.75;4.13;;;7.80;57.30;;;;;;4994347;28;20019;-71
2021/05/07 09:06:19;;;;;;;6.68;3.97;;;7.80;57.50;;;;;;4994263;28;20038;-72
2021/05/07 09:08:47;;;;;;;4.40;4.00;;;8.00;58.90;;;;;;5002319;28;20018;-72
2021/05/07 09:11:14;;;;;;;4.28;3.83;;;7.80;57.30;;;;;;4993793;28;20038;-72
2021/05/07 09:13:40;;;;;;;9.38;4.70;;;7.80;57.30;;;;;;4976508;28;20050;-72
2021/05/07 09:16:08;;;;;;;7.07;4.55;;;7.80;57.20;;;;;;4994029;28;20029;-70
2021/05/07 09:18:45;;;;;;;4.57;4.18;;;7.80;56.70;;;;;;4971842;28;20086;-71
2021/05/07 09:21:12;;;;;;;4.50;4.07;;;7.70;56.30;;;;;;4992700;28;20335;-71
2021/05/07 09:23:46;;;;;;;5.15;4.13;;;7.70;56.50;;;;;;4987498;28;20105;-73
2021/05/07 09:26:13;;;;;;;4.60;4.15;;;7.70;56.80;;;;;;4993314;28;20465;-73
2021/05/07 09:28:49;;;;;;;6.95;4.20;;;7.80;56.80;;;;;;4993684;28;20100;-74
2021/05/07 09:31:16;;;;;;;4.88;4.15;;;7.90;55.90;;;;;;4993448;28;20041;-73
2021/05/07 09:33:47;;;;;;;5.13;4.20;;;7.90;55.00;;;;;;4998353;28;20018;-73
2021/05/07 09:36:24;;;;;;;4.75;4.25;;;7.60;54.70;;;;;;4985194;28;20026;-73
2021/05/07 09:38:50;;;;;;;5.28;3.92;;;7.50;54.80;;;;;;4992765;28;20496;-76
2021/05/07 09:41:15;;;;;;;4.93;4.43;;;7.50;54.90;;;;;;5002320;28;20037;-73
2021/05/07 09:43:41;;;;;;;7.95;4.45;;;7.30;55.30;;;;;;4980668;28;20419;-72
2021/05/07 09:46:07;;;;;;;5.47;3.40;;;7.30;55.70;;;;;;4980130;28;20561;-69
2021/05/07 09:48:33;;;;;;;5.63;4.53;;;7.50;66.00;;;;;;4982829;28;20030;-72
2021/05/07 09:51:04;;;;;;;5.10;4.10;;;8.40;59.30;;;;;;4991126;28;20096;-73
2021/05/07 09:53:32;;;;;;;7.07;4.57;;;8.10;56.10;;;;;;4992744;28;20048;-73
2021/05/07 09:56:03;;;;;;;4.80;4.32;;;7.70;54.50;;;;;;4993134;28;20054;-70
2021/05/07 09:58:29;;;;;;;10.27;4.82;;;7.40;55.20;;;;;;4975368;28;20027;-69
2021/05/07 10:00:58;;;;;;;10.98;4.65;;;7.40;54.40;;;;;;4993153;28;20049;-69
2021/05/07 10:03:24;;;;;;;5.22;4.35;;;7.40;55.00;;;;;;4980492;28;20058;-69
2021/05/07 10:05:51;;;;;;;5.22;4.20;;;7.50;55.40;;;;;;4993324;28;20046;-69
2021/05/07 10:08:17;;;;;;;7.38;4.53;;;7.70;55.10;;;;;;4993280;28;20018;-69
2021/05/07 10:10:45;;;;;;;4.57;4.18;;;7.70;54.70;;;;;;4993149;28;20487;-72
2021/05/07 10:13:32;;;;;;;19.05;5.63;;;7.70;54.30;;;;;;4975033;28;20035;-69
2021/05/07 10:16:05;;;;;;;5.13;4.00;;;7.70;54.50;;;;;;4985677;28;20077;-69
2021/05/07 10:18:33;;;;;;;15.55;5.25;;;7.40;55.30;;;;;;4992604;28;20026;-70
2021/05/07 10:21:06;;;;;;;5.15;4.05;;;7.40;55.30;;;;;;4992881;28;20378;-70
2021/05/07 10:23:32;;;;;;;4.85;4.35;;;7.40;55.30;;;;;;4992703;28;20023;-69
2021/05/07 10:26:08;;;;;;;4.80;4.25;;;7.60;55.30;;;;;;4992985;28;20059;-69
2021/05/07 10:28:44;;;;;;;5.72;4.20;;;7.60;54.90;;;;;;4992771;28;20115;-69
2021/05/07 10:31:12;;;;;;;3.97;3.50;;;7.80;55.20;;;;;;4993036;28;20030;-70
2021/05/07 10:33:38;;;;;;;9.63;4.38;;;7.80;54.20;;;;;;4992634;28;20541;-69
2021/05/07 10:36:06;;;;;;;7.78;4.35;;;7.60;53.90;;;;;;4992786;28;20034;-70
2021/05/07 10:38:32;;;;;;;9.13;4.63;;;7.30;54.00;;;;;;4992530;28;20030;-69
2021/05/07 10:41:10;;;;;;;201.75;16.52;;;7.10;54.60;;;;;;4992463;28;20497;-69
2021/05/07 10:43:45;;;;;;;51.00;6.38;;;7.00;55.30;;;;;;5004275;28;20068;-69
2021/05/07 10:46:22;;;;;;;5.60;4.45;;;7.20;55.60;;;;;;5012343;28;20026;-69
2021/05/07 10:48:55;;;;;;;4.07;3.67;;;7.30;54.50;;;;;;5012089;28;20022;-70
2021/05/07 10:51:22;;;;;;;4.20;3.63;;;7.30;54.70;;;;;;5011862;28;20038;-69
2021/05/07 10:53:49;;;;;;;55.53;5.70;;;7.40;55.50;;;;;;5002993;28;20363;-69
2021/05/07 10:56:19;;;;;;;3.92;3.53;;;7.40;54.80;;;;;;5010021;28;20050;-69
2021/05/07 10:58:46;;;;;;;6.80;4.00;;;7.40;55.70;;;;;;5011867;28;20026;-69
2021/05/07 11:01:18;;;;;;;8.10;4.93;;;7.80;57.40;;;;;;4994240;28;20083;-68
2021/05/07 11:03:45;;;;;;;12.75;4.25;;;7.90;55.00;;;;;;4994266;28;20028;-68
2021/05/07 11:06:13;;;;;;;34.20;5.25;;;7.90;55.00;;;;;;5011675;28;20034;-67
2021/05/07 11:08:40;;;;;;;38.60;7.03;;;8.00;55.60;;;;;;5011154;28;20113;-67
2021/05/07 11:11:06;;;;;;;11.13;3.72;;;8.00;54.00;;;;;;5011563;28;20117;-67
2021/05/07 11:13:31;;;;;;;92.57;7.72;;;7.90;53.70;;;;;;5004406;28;20452;-67
2021/05/07 11:16:00;;;;;;;16.60;5.20;;;7.80;53.90;;;;;;5000207;28;20022;-68
2021/05/07 11:18:30;;;;;;;13.85;3.75;;;7.80;53.80;;;;;;4992006;28;20026;-67
2021/05/07 11:20:56;;;;;;;;;;;7.80;54.10;;;;;;4992382;28;20022;-66
2021/05/07 11:23:29;;;;;;;6.88;4.03;;;7.80;54.70;;;;;;4991654;28;20259;-66
2021/05/07 11:25:56;;;;;;;4.47;4.07;;;7.80;55.60;;;;;;4992126;28;20027;-66
2021/05/07 11:28:22;;;;;;;4.20;3.83;;;7.60;55.80;;;;;;4974447;28;20394;-66
2021/05/07 11:30:48;;;;;;;4.90;4.18;;;7.50;55.00;;;;;;4992064;28;20041;-66
2021/05/07 11:33:14;;;;;;;5.03;4.15;;;7.40;55.00;;;;;;4991886;28;20038;-66
2021/05/07 11:35:40;;;;;;;5.03;4.38;;;7.40;55.60;;;;;;4990934;28;20074;-67
2021/05/07 11:38:06;;;;;;;6.38;3.92;;;7.50;56.60;;;;;;4991869;28;20068;-66
2021/05/07 11:40:37;;;;;;;5.28;4.22;;;7.60;54.80;;;;;;4982968;28;20062;-65
2021/05/07 11:43:11;;;;;;;4.78;3.97;;;7.60;54.30;;;;;;5011297;28;20108;-65
2021/05/07 11:45:38;;;;;;;5.57;4.20;;;7.60;54.60;;;;;;5011159;28;20040;-65
2021/05/07 11:48:11;;;;;;;3.80;3.40;;;7.70;54.50;;;;;;5011510;28;20087;-65
2021/05/07 11:50:38;;;;;;;5.07;4.07;;;7.60;53.40;;;;;;5011342;28;20030;-65
2021/05/07 11:53:04;;;;;;;4.72;3.88;;;7.60;53.00;;;;;;5005679;28;20026;-64
2021/05/07 11:55:32;;;;;;;4.38;3.75;;;7.60;53.30;;;;;;5003130;28;20014;-66
2021/05/07 11:58:08;;;;;;;17.67;4.03;;;7.70;53.60;;;;;;5011241;28;20486;-65
2021/05/07 12:00:37;;;;;;;7.05;4.18;;;7.80;53.20;;;;;;4995130;28;20037;-64
2021/05/07 12:03:11;;;;;;;4.63;4.05;;;7.70;53.40;;;;;;4999314;28;20355;-65
2021/05/07 12:05:39;;;;;;;4.78;3.97;;;7.70;53.70;;;;;;4989040;28;20034;-65
2021/05/07 12:08:06;;;;;;;4.93;3.97;;;7.80;54.20;;;;;;4990991;28;20030;-65
2021/05/07 12:10:33;;;;;;;5.53;3.92;;;7.70;53.80;;;;;;4986597;28;20566;-65
2021/05/07 12:13:00;;;;;;;4.53;3.97;;;7.70;53.90;;;;;;4985846;28;20031;-65
2021/05/07 12:15:31;;;;;;;4.68;3.85;;;7.70;54.10;;;;;;4988469;28;20957;-65
2021/05/07 12:17:58;;;;;;;4.45;4.05;;;7.80;54.40;;;;;;4988944;28;20039;-64
2021/05/07 12:20:26;;;;;;;5.18;3.88;;;7.90;53.40;;;;;;4990749;28;20141;-65
2021/05/07 12:22:54;;;;;;;4.22;2.97;;;7.90;52.20;;;;;;4995021;28;20053;-63
2021/05/07 12:25:25;;;;;;;4.35;3.72;;;8.20;63.60;;;;;;4994630;28;20030;-65
2021/05/07 12:27:53;;;;;;;4.05;3.65;;;9.40;56.60;;;;;;4994694;28;20029;-69
2021/05/07 12:30:19;;;;;;;4.85;4.35;;;9.00;51.50;;;;;;4994356;28;20109;-70
2021/05/07 12:33:02;;;;;;;5.50;4.47;;;8.60;51.40;;;;;;4994902;28;20033;-70
2021/05/07 12:35:55;;;;;;;5.22;4.47;;;8.30;52.70;;;;;;4987409;28;20475;-71
2021/05/07 12:38:24;;;;;;;9.90;4.82;;;8.00;52.00;;;;;;4974062;28;20043;-67
2021/05/07 12:40:51;;;;;;;8.50;4.70;;;7.90;52.70;;;;;;4965921;28;20061;-67
2021/05/07 12:43:17;;;;;;;6.00;4.85;;;7.80;52.80;;;;;;4986199;28;20449;-68
2021/05/07 12:45:47;;;;;;;4.95;4.45;;;7.80;52.50;;;;;;4991354;28;20026;-68
2021/05/07 12:48:14;;;;;;;12.35;4.80;;;7.80;52.70;;;;;;4994243;28;20077;-68
2021/05/07 12:50:41;;;;;;;4.93;3.95;;;7.70;52.50;;;;;;4993941;28;20211;-68
2021/05/07 12:53:11;;;;;;;4.40;4.00;;;7.80;53.10;;;;;;4993986;28;20026;-69
2021/05/07 12:55:39;;;;;;;4.85;3.78;;;7.80;52.80;;;;;;4993530;28;20355;-68
2021/05/07 12:58:05;;;;;;;4.10;3.70;;;7.80;52.20;;;;;;4991823;28;20026;-68
2021/05/07 13:00:31;;;;;;;4.03;3.50;;;7.80;52.30;;;;;;4993635;28;20478;-68
2021/05/07 13:02:58;;;;;;;4.35;3.95;;;7.80;52.30;;;;;;4991872;28;20114;-68
2021/05/07 13:05:24;;;;;;;4.53;3.90;;;7.90;52.00;;;;;;4976308;28;20023;-69
2021/05/07 13:07:50;;;;;;;4.05;3.65;;;7.80;52.20;;;;;;4994046;28;20049;-68
2021/05/07 13:10:16;;;;;;;3.58;3.22;;;7.90;52.40;;;;;;4991340;28;20046;-69
2021/05/07 13:12:42;;;;;;;3.55;3.25;;;7.90;52.70;;;;;;4992773;28;20034;-68
2021/05/07 13:15:08;;;;;;;4.22;3.55;;;7.90;52.50;;;;;;4990865;28;20019;-69
2021/05/07 13:17:34;;;;;;;5.07;3.75;;;7.90;52.10;;;;;;4993435;28;20621;-69
2021/05/07 13:20:00;;;;;;;5.47;3.60;;;7.90;51.40;;;;;;4990825;28;20029;-69
2021/05/07 13:22:26;;;;;;;3.65;3.30;;;7.90;51.60;;;;;;4988642;28;20113;-69
2021/05/07 13:24:53;;;;;;;8.88;3.58;;;7.90;52.10;;;;;;4988293;28;20610;-69
2021/05/07 13:27:19;;;;;;;6.55;3.38;;;7.80;51.90;;;;;;4985620;28;20415;-68
2021/05/07 13:29:44;;;;;;;6.40;3.42;;;7.80;51.80;;;;;;4987608;28;20158;-68
2021/05/07 13:32:17;;;;;;;5.97;3.30;;;7.80;52.10;;;;;;4988184;28;20125;-68
2021/05/07 13:34:46;;;;;;;3.10;2.80;;;7.90;51.90;;;;;;4986460;28;20023;-68
2021/05/07 13:37:12;;;;;;;3.97;3.20;;;7.90;52.50;;;;;;4991282;28;20026;-68
2021/05/07 13:39:38;;;;;;;4.30;2.63;;;7.90;52.50;;;;;;4989941;28;20386;-68
2021/05/07 13:42:04;;;;;;;3.80;2.90;;;8.00;53.00;;;;;;4991991;28;20038;-68
2021/05/07 13:44:30;;;;;;;3.35;3.05;;;8.00;52.70;;;;;;4981101;28;20033;-69
2021/05/07 13:46:55;;;;;;;3.10;2.80;;;8.10;53.10;;;;;;4992117;28;20018;-69
2021/05/07 13:49:21;;;;;;;3.10;2.80;;;8.30;53.40;;;;;;4977332;28;20029;-69
2021/05/07 13:51:47;;;;;;;2.83;2.60;;;8.40;52.90;;;;;;4990054;28;20477;-69
2021/05/07 13:54:13;;;;;;;3.65;2.55;;;8.60;52.40;;;;;;4992779;28;20026;-69
2021/05/07 13:56:38;;;;;;;3.90;2.42;;;8.60;52.30;;;;;;4992275;28;20050;-70
2021/05/07 13:59:05;;;;;;;2.83;2.63;;;8.60;52.10;;;;;;4992950;28;20080;-70
2021/05/07 14:01:31;;;;;;;3.95;2.92;;;8.60;50.90;;;;;;4992417;28;20393;-69
2021/05/07 14:03:56;;;;;;;5.97;3.40;;;8.60;50.90;;;;;;4990417;28;20018;-69
2021/05/07 14:06:22;;;;;;;3.40;3.10;;;8.50;51.10;;;;;;4990099;28;20077;-69
2021/05/07 14:08:48;;;;;;;3.10;2.80;;;8.40;51.30;;;;;;4989956;28;20458;-69
2021/05/07 14:11:13;;;;;;;3.30;2.80;;;8.30;51.80;;;;;;4992405;28;20034;-70
2021/05/07 14:13:39;;;;;;;2.67;2.47;;;8.20;51.50;;;;;;4986325;28;20046;-69
2021/05/07 14:16:05;;;;;;;2.38;2.17;;;8.20;51.30;;;;;;4992570;28;20381;-69
2021/05/07 14:18:31;;;;;;;2.60;2.28;;;8.20;51.20;;;;;;4992197;28;20386;-69
2021/05/07 14:20:57;;;;;;;2.53;2.33;;;8.30;51.40;;;;;;4992165;28;20368;-70
2021/05/07 14:23:23;;;;;;;14.20;2.88;;;8.30;52.30;;;;;;4989791;28;20037;-69
2021/05/07 14:25:49;;;;;;;2.65;2.28;;;8.50;53.70;;;;;;4988173;28;20486;-71
2021/05/07 14:28:14;;;;;;;2.30;2.10;;;8.60;52.20;;;;;;4990215;28;20122;-68
2021/05/07 14:30:40;;;;;;;2.63;2.42;;;8.60;50.60;;;;;;4990783;28;20042;-68
2021/05/07 14:33:06;;;;;;;3.50;2.25;;;8.60;51.10;;;;;;4986716;28;20415;-68
2021/05/07 14:35:32;;;;;;;3.42;2.08;;;8.50;50.50;;;;;;4988204;28;20098;-70
2021/05/07 14:37:57;;;;;;;2.33;2.13;;;8.60;50.50;;;;;;4986042;28;20475;-70
2021/05/07 14:40:23;;;;;;;2.30;2.10;;;8.60;50.70;;;;;;4973955;28;20501;-70
2021/05/07 14:42:49;;;;;;;2.28;2.10;;;8.60;50.30;;;;;;4989481;28;20499;-70
2021/05/07 14:45:16;;;;;;;3.35;2.05;;;8.60;50.50;;;;;;4980920;28;20101;-70
2021/05/07 14:47:42;;;;;;;2.38;2.17;;;8.60;50.70;;;;;;4991405;28;20034;-71
2021/05/07 14:50:09;;;;;;;2.22;2.03;;;8.50;51.20;;;;;;4991311;28;20478;-70
2021/05/07 14:52:35;;;;;;;4.78;2.20;;;8.40;51.00;;;;;;4984958;28;20026;-70
2021/05/07 14:55:01;;;;;;;7.70;2.33;;;8.30;51.30;;;;;;4990246;28;20037;-70
2021/05/07 14:57:27;;;;;;;7.68;2.20;;;8.20;51.80;;;;;;4988459;28;20537;-70
2021/05/07 14:59:53;;;;;;;2.70;2.50;;;8.10;52.90;;;;;;4991905;28;20097;-70
2021/05/07 15:02:19;;;;;;;2.05;1.92;;;7.90;54.30;;;;;;4991720;28;20029;-69
2021/05/07 15:04:45;;;;;;;2.13;1.95;;;7.70;55.80;;;;;;4991455;28;20092;-70
2021/05/07 15:07:18;;;;;;;3.75;1.98;;;7.70;56.00;;;;;;4991632;28;20010;-67
2021/05/07 15:09:45;;;;;;;4.53;2.00;;;7.70;55.90;;;;;;4991630;28;20022;-67
2021/05/07 15:12:12;;;;;;;2.25;2.05;;;7.70;55.40;;;;;;4991714;28;20033;-67
2021/05/07 15:14:39;;;;;;;2.40;2.20;;;7.70;55.40;;;;;;4987091;28;20021;-67
2021/05/07 15:17:04;;;;;;;2.95;2.60;;;7.80;55.90;;;;;;4991018;28;20022;-67
2021/05/07 15:19:31;;;;;;;2.50;2.30;;;7.80;56.30;;;;;;4990558;28;20037;-67
2021/05/07 15:21:57;;;;;;;3.00;2.17;;;7.80;55.80;;;;;;4988126;28;20030;-67
2021/05/07 15:24:22;;;;;;;6.05;2.65;;;7.80;55.50;;;;;;4987617;28;20030;-67
2021/05/07 15:26:48;;;;;;;5.25;2.67;;;7.80;55.90;;;;;;4988173;28;20029;-67
2021/05/07 15:29:14;;;;;;;3.33;2.70;;;7.80;55.90;;;;;;4985947;28;20026;-67
2021/05/07 15:31:40;;;;;;;2.80;2.33;;;7.90;55.00;;;;;;4980755;28;20398;-67
2021/05/07 15:34:06;;;;;;;3.80;2.60;;;7.90;54.90;;;;;;4989513;28;20677;-67
2021/05/07 15:36:32;;;;;;;3.03;2.10;;;7.90;55.30;;;;;;4984693;28;20486;-67
2021/05/07 15:39:02;;;;;;;1.98;1.77;;;8.00;54.90;;;;;;4975111;28;20106;-65
2021/05/07 15:41:28;;;;;;;3.00;2.50;;;8.10;54.60;;;;;;4975073;28;20113;-65
2021/05/07 15:43:53;;;;;;;1.95;1.85;;;8.20;54.90;;;;;;4985442;28;20094;-65
2021/05/07 15:46:20;;;;;;;4.38;2.10;;;8.20;54.10;;;;;;4989606;28;20109;-67
2021/05/07 15:48:45;;;;;;;1.77;1.67;;;8.20;53.40;;;;;;4984101;28;20076;-67
2021/05/07 15:51:11;;;;;;;2.88;2.03;;;8.10;53.20;;;;;;4973661;28;20039;-67
2021/05/07 15:53:38;;;;;;;1.73;1.63;;;8.00;53.40;;;;;;4991513;28;20030;-70
2021/05/07 15:56:03;;;;;;;3.10;2.47;;;8.00;53.20;;;;;;4993558;28;20115;-70
2021/05/07 15:58:29;;;;;;;1.58;1.48;;;8.20;57.60;;;;;;4995343;28;20054;-69
2021/05/07 16:00:55;;;;;;;2.05;1.80;;;8.30;53.70;;;;;;4995357;28;20105;-69
2021/05/07 16:03:21;;;;;;;7.47;2.13;;;8.20;53.40;;;;;;4995472;28;20019;-70
2021/05/07 16:05:46;;;;;;;32.83;15.52;;;8.20;54.00;;;;;;4995222;28;20072;-70
2021/05/07 16:08:12;;;;;;;7.70;5.18;;;8.20;54.10;;;;;;4995443;28;20023;-70
2021/05/07 16:10:38;;;;;;;9.80;5.15;;;8.10;54.30;;;;;;4995234;28;20076;-70
2021/05/07 16:13:06;;;;;;;3.05;2.05;;;8.00;54.50;;;;;;4995188;28;20037;-70
2021/05/07 16:15:36;;;;;;;4.07;1.88;;;7.90;54.70;;;;;;4995328;28;20037;-70
2021/05/07 16:18:03;;;;;;;1.95;1.80;;;7.90;54.70;;;;;;4995461;28;20447;-70
2021/05/07 16:20:31;;;;;;;1.80;1.70;;;7.80;54.70;;;;;;4995024;28;20482;-70
2021/05/07 16:22:57;;;;;;;4.85;1.48;;;7.80;54.70;;;;;;4989459;28;20031;-70
2021/05/07 16:25:24;;;;;;;2.28;1.80;;;7.90;57.10;;;;;;4983900;28;20417;-68
2021/05/07 16:27:51;;;;;;;4.93;2.80;;;8.90;62.60;;;;;;4996477;28;20508;-67
2021/05/07 16:30:18;;;;;;;3.58;2.65;;;8.80;55.30;;;;;;4994887;28;20050;-66
2021/05/07 16:32:43;;;;;;;6.47;3.25;;;8.60;54.70;;;;;;4994905;28;20026;-66
2021/05/07 16:35:10;;;;;;;4.97;3.22;;;8.40;54.90;;;;;;4982756;28;20093;-66
2021/05/07 16:37:36;;;;;;;3.60;2.05;;;8.30;54.80;;;;;;4994740;28;20027;-66
2021/05/07 16:40:03;;;;;;;4.35;1.75;;;8.20;55.00;;;;;;4995019;28;20026;-65
2021/05/07 16:42:28;;;;;;;2.03;1.75;;;8.10;54.80;;;;;;5011336;28;20049;-65
2021/05/07 16:44:54;;;;;;;1.30;1.20;;;8.10;55.00;;;;;;5014418;28;20509;-66
2021/05/07 16:47:20;;;;;;;1.80;1.70;;;8.00;54.00;;;;;;4996857;28;20113;-66
2021/05/07 16:49:45;;;;;;;3.53;1.50;;;8.00;54.00;;;;;;5014213;28;20018;-66
2021/05/07 16:52:11;;;;;;;1.75;1.48;;;8.00;54.70;;;;;;5014243;28;20042;-66